This is the latest recevied weather packets stored in our database for station/object W4SMH. If no packets are shown the sender has not sent any weather packets the latest 10 day(s).
| Time | Temp. | Humidity | Pressure | Rain* | Wind** | Luminosity | Snow |
|---|---|---|---|---|---|---|---|
| 1778146226 | 0.56° C | 78% | 1012.8 hPa | 0 mm | - | 0 W/m² | - |
| 1778145840 | 0.56° C | 78% | 1012.9 hPa | 0 mm | - | 0 W/m² | - |
| 1778145317 | 13.33° C | 38% | 1006.9 hPa | 0 mm | - | 596 W/m² | - |
| 1778145229 | 0.56° C | 78% | 1012.9 hPa | 0 mm | - | 0 W/m² | - |
| 1778145195 | 0.56° C | 78% | 1012.9 hPa | 0 mm | - | 0 W/m² | - |
| 1778144868 | 0.56° C | 77% | 1012.9 hPa | 0 mm | - | 0 W/m² | - |
| 1778144839 | 0.56° C | 77% | 1012.9 hPa | 0 mm | - | 0 W/m² | - |
| 1778144798 | 0.56° C | 78% | 1012.9 hPa | 0 mm | - | 0 W/m² | - |
| 1778144558 | 0.56° C | 78% | 1012.9 hPa | 0 mm | - | 0 W/m² | - |
| 1778143897 | 0.56° C | 78% | 1012.9 hPa | 0 mm | - | 0 W/m² | - |
| 1778143866 | 0.56° C | 78% | 1012.9 hPa | 0 mm | - | 0 W/m² | - |
| 1778143842 | 0.56° C | 78% | 1012.8 hPa | 0 mm | - | 0 W/m² | - |
| 1778143787 | 0.56° C | 77% | 1012.9 hPa | 0 mm | - | 0 W/m² | - |
| 1778143759 | 0.56° C | 77% | 1012.9 hPa | 0 mm | - | 0 W/m² | - |
| 1778143698 | 0.56° C | 77% | 1012.9 hPa | 0 mm | - | 0 W/m² | - |
| 1778143517 | 0.56° C | 77% | 1012.8 hPa | 0 mm | - | 0 W/m² | - |
| 1778143306 | 0.56° C | 77% | 1012.9 hPa | 0 mm | - | 0 W/m² | - |
| 1778142872 | 0.56° C | 77% | 1012.9 hPa | 0 mm | - | 0 W/m² | - |
| 1778141431 | 0.56° C | 76% | 1012.9 hPa | 0 mm | - | 0 W/m² | - |
| 1778141401 | 0.56° C | 76% | 1012.9 hPa | 0 mm | - | 0 W/m² | - |
| 1778141375 | 0.56° C | 76% | 1013 hPa | 0 mm | - | 0 W/m² | - |
| 1778141091 | 12.22° C | 43% | 1006.8 hPa | 0 mm | - | 610 W/m² | - |
| 1778140817 | 0.56° C | 76% | 1013 hPa | 0 mm | - | 0 W/m² | - |
| 1778139886 | 0.56° C | 76% | 1013 hPa | 0 mm | - | 0 W/m² | - |
| 1778139619 | 0.56° C | 76% | 1013.1 hPa | 0 mm | - | 0 W/m² | - |
* Rain latest hour (hover to see other rain measurements)
** Current wind speed in m/s (hover to see current wind gust speed)